TimePDT,TemperatureF,Dew PointF,Humidity,Sea Level PressureIn,VisibilityMPH,Wind Direction,Wind SpeedMPH,Gust SpeedMPH,PrecipitationIn,Events,Conditions,WindDirDegrees,DateUTC
12:15 AM,64.4,59.0,83,29.96,10.0,SSE,6.9,-,0.00,,Mostly Cloudy,160,2013-08-27 07:15:00
12:35 AM,64.4,60.8,88,29.96,10.0,SSE,9.2,-,0.00,,Overcast,160,2013-08-27 07:35:00
12:55 AM,64.4,60.8,88,29.95,10.0,SSE,9.2,-,0.00,,Mostly Cloudy,150,2013-08-27 07:55:00
1:15 AM,64.4,60.8,88,29.96,10.0,SSE,6.9,17.3,0.00,,Partly Cloudy,160,2013-08-27 08:15:00
1:35 AM,64.4,60.8,88,29.95,10.0,South,8.1,-,0.00,,Clear,170,2013-08-27 08:35:00
1:55 AM,64.4,59.0,83,29.95,10.0,SSE,4.6,-,0.00,,Clear,160,2013-08-27 08:55:00
2:15 AM,64.4,59.0,83,29.95,10.0,SE,5.8,-,0.00,,Clear,130,2013-08-27 09:15:00
2:35 AM,64.4,60.8,88,29.95,10.0,SE,5.8,-,0.00,,Scattered Clouds,130,2013-08-27 09:35:00
2:55 AM,64.4,60.8,88,29.95,10.0,SE,4.6,-,0.00,,Partly Cloudy,140,2013-08-27 09:55:00
3:15 AM,64.4,60.8,88,29.94,10.0,SE,5.8,-,0.00,,Clear,130,2013-08-27 10:15:00
3:35 AM,64.4,60.8,88,29.94,10.0,SSE,6.9,-,0.00,,Partly Cloudy,150,2013-08-27 10:35:00
3:55 AM,64.4,60.8,88,29.94,10.0,SSE,5.8,-,0.00,,Clear,150,2013-08-27 10:55:00
4:15 AM,62.6,60.8,94,29.93,10.0,SE,5.8,-,0.00,,Clear,130,2013-08-27 11:15:00
4:35 AM,62.6,60.8,94,29.93,10.0,ESE,5.8,-,0.00,,Clear,120,2013-08-27 11:35:00
4:55 AM,62.6,60.8,94,29.93,10.0,ESE,6.9,-,0.00,,Clear,120,2013-08-27 11:55:00
5:15 AM,62.6,60.8,94,29.93,10.0,ESE,5.8,-,0.00,,Clear,110,2013-08-27 12:15:00
5:35 AM,62.6,60.8,94,29.93,10.0,SE,3.5,-,0.00,,Clear,130,2013-08-27 12:35:00
5:55 AM,62.6,60.8,94,29.93,10.0,SE,5.8,-,0.00,,Partly Cloudy,130,2013-08-27 12:55:00
6:15 AM,62.6,60.8,94,29.93,10.0,SE,4.6,-,0.00,,Partly Cloudy,140,2013-08-27 13:15:00
6:35 AM,62.6,60.8,94,29.93,10.0,ESE,6.9,-,0.00,,Clear,120,2013-08-27 13:35:00
6:55 AM,62.6,60.8,94,29.93,10.0,SE,5.8,-,0.00,,Partly Cloudy,140,2013-08-27 13:55:00
7:15 AM,62.6,60.8,94,29.93,10.0,ESE,5.8,-,0.00,,Scattered Clouds,120,2013-08-27 14:15:00
7:35 AM,62.6,60.8,94,29.94,10.0,ESE,5.8,-,0.00,,Mostly Cloudy,120,2013-08-27 14:35:00
7:55 AM,64.4,60.8,88,29.94,10.0,SE,5.8,-,0.00,,Mostly Cloudy,130,2013-08-27 14:55:00
8:15 AM,66.2,60.8,83,29.94,10.0,SE,6.9,-,0.00,,Partly Cloudy,140,2013-08-27 15:15:00
8:35 AM,66.2,60.8,83,29.94,10.0,SSE,9.2,-,0.00,,Mostly Cloudy,150,2013-08-27 15:35:00
8:55 AM,68.0,62.6,83,29.94,10.0,SSE,9.2,-,0.00,,Scattered Clouds,160,2013-08-27 15:55:00
9:15 AM,68.0,60.8,78,29.94,10.0,South,8.1,-,0.00,,Scattered Clouds,170,2013-08-27 16:15:00
9:35 AM,69.8,60.8,73,29.94,10.0,SE,8.1,-,0.00,,Partly Cloudy,140,2013-08-27 16:35:00
9:55 AM,69.8,60.8,73,29.94,10.0,SSE,11.5,-,0.00,,Clear,150,2013-08-27 16:55:00
10:15 AM,71.6,60.8,69,29.93,8.0,SSE,13.8,-,0.00,,Clear,150,2013-08-27 17:15:00
10:35 AM,71.6,60.8,69,29.93,10.0,South,10.4,-,0.00,,Clear,180,2013-08-27 17:35:00
10:55 AM,71.6,60.8,69,29.93,9.0,South,9.2,-,0.00,,Clear,170,2013-08-27 17:55:00
11:15 AM,73.4,62.6,69,29.93,10.0,SE,12.7,-,0.00,,Partly Cloudy,140,2013-08-27 18:15:00
11:35 AM,73.4,62.6,69,29.92,10.0,SSE,11.5,17.3,0.00,,Clear,160,2013-08-27 18:35:00
11:55 AM,75.2,62.6,65,29.92,10.0,South,9.2,-,0.00,,Partly Cloudy,170,2013-08-27 18:55:00
12:15 PM,75.2,62.6,65,29.91,10.0,South,10.4,16.1,0.00,,Clear,170,2013-08-27 19:15:00
12:35 PM,75.2,60.8,61,29.91,10.0,South,10.4,-,0.00,,Clear,180,2013-08-27 19:35:00
12:55 PM,75.2,62.6,65,29.90,9.0,SSW,10.4,18.4,0.00,,Partly Cloudy,210,2013-08-27 19:55:00
1:15 PM,75.2,62.6,65,29.89,10.0,South,9.2,-,0.00,,Partly Cloudy,190,2013-08-27 20:15:00
1:35 PM,75.2,62.6,65,29.89,10.0,South,8.1,-,0.00,,Clear,180,2013-08-27 20:35:00
1:55 PM,75.2,62.6,65,29.88,5.0,SW,4.6,-,0.00,,Clear,230,2013-08-27 20:55:00
2:15 PM,75.2,62.6,65,29.88,9.0,South,3.5,-,0.00,,Clear,190,2013-08-27 21:15:00
2:35 PM,78.8,62.6,57,29.87,9.0,SSE,4.6,-,0.00,,Clear,160,2013-08-27 21:35:00
2:55 PM,78.8,59.0,51,29.86,10.0,SSW,6.9,-,0.00,,Clear,210,2013-08-27 21:55:00
3:15 PM,78.8,60.8,54,29.86,9.0,SW,4.6,-,0.00,,Partly Cloudy,230,2013-08-27 22:15:00
3:35 PM,78.8,60.8,54,29.85,10.0,South,3.5,-,0.00,,Scattered Clouds,190,2013-08-27 22:35:00
3:55 PM,75.2,62.6,65,29.85,10.0,NNW,8.1,-,0.00,,Mostly Cloudy,330,2013-08-27 22:55:00
4:15 PM,75.2,62.6,65,29.85,10.0,NW,10.4,-,0.00,,Mostly Cloudy,310,2013-08-27 23:15:00
4:35 PM,73.4,60.8,65,29.84,10.0,WNW,9.2,-,0.00,,Partly Cloudy,300,2013-08-27 23:35:00
4:55 PM,71.6,62.6,73,29.84,10.0,NW,10.4,-,0.00,,Scattered Clouds,320,2013-08-27 23:55:00
5:15 PM,71.6,62.6,73,29.84,10.0,WNW,11.5,-,0.00,,Partly Cloudy,300,2013-08-28 00:15:00
5:35 PM,69.8,60.8,73,29.83,10.0,WNW,10.4,-,0.00,,Scattered Clouds,300,2013-08-28 00:35:00
5:55 PM,69.8,60.8,73,29.83,10.0,WNW,9.2,-,0.00,,Scattered Clouds,300,2013-08-28 00:55:00
6:15 PM,68.0,60.8,78,29.82,9.0,WNW,10.4,-,0.00,,Mostly Cloudy,290,2013-08-28 01:15:00
6:35 PM,66.2,60.8,83,29.83,9.0,WNW,8.1,-,0.00,,Mostly Cloudy,300,2013-08-28 01:35:00
6:55 PM,66.2,60.8,83,29.82,10.0,WNW,8.1,-,0.00,,Partly Cloudy,290,2013-08-28 01:55:00
7:15 PM,68.0,60.8,78,29.82,10.0,NW,6.9,-,0.00,,Scattered Clouds,310,2013-08-28 02:15:00
7:35 PM,66.2,60.8,83,29.83,10.0,SW,6.9,-,0.00,,Partly Cloudy,220,2013-08-28 02:35:00
7:55 PM,64.4,60.8,88,29.82,10.0,WSW,4.6,-,0.00,,Scattered Clouds,240,2013-08-28 02:55:00
8:15 PM,62.6,60.8,94,29.83,10.0,SSW,5.8,-,0.00,,Mostly Cloudy,210,2013-08-28 03:15:00
8:35 PM,62.6,60.8,94,29.83,10.0,Calm,Calm,-,0.00,,Mostly Cloudy,0,2013-08-28 03:35:00
8:55 PM,62.6,60.8,94,29.83,9.0,Calm,Calm,-,0.00,,Overcast,0,2013-08-28 03:55:00
9:15 PM,60.8,60.8,100,29.84,10.0,SSE,4.6,-,0.00,,Mostly Cloudy,160,2013-08-28 04:15:00
9:35 PM,60.8,60.8,100,29.85,10.0,SW,8.1,-,0.00,,Mostly Cloudy,220,2013-08-28 04:35:00
9:55 PM,59.0,59.0,100,29.86,5.0,South,4.6,-,0.03,,Overcast,190,2013-08-28 04:55:00
10:15 PM,57.2,57.2,100,29.87,9.0,SW,5.8,-,0.00,,Overcast,220,2013-08-28 05:15:00
10:35 PM,57.2,57.2,100,29.87,8.0,Calm,Calm,-,0.02,,Overcast,0,2013-08-28 05:35:00
10:55 PM,57.2,57.2,100,29.86,10.0,ESE,4.6,-,0.03,,Mostly Cloudy,110,2013-08-28 05:55:00
11:15 PM,57.2,57.2,100,29.87,10.0,NE,3.5,-,0.00,,Mostly Cloudy,50,2013-08-28 06:15:00
11:35 PM,57.2,57.2,100,29.86,10.0,Calm,Calm,-,0.00,,Scattered Clouds,0,2013-08-28 06:35:00
11:55 PM,59.0,59.0,100,29.86,10.0,Calm,Calm,-,0.00,,Mostly Cloudy,0,2013-08-28 06:55:00